Time;durP1;ratioP1;P1;durP2;ratioP2;P2;SDS_P1;SDS_P2;PMS_P1;PMS_P2;Temp;Humidity;BMP_temperature;BMP_pressure;BME280_temperature;BME280_humidity;BME280_pressure;Samples;Min_cycle;Max_cycle;Signal;HPM_P1;HPM_P2
2022/05/29 00:01:02;;;;;;;7.38;2.05;;;12.30;64.80;;;;;;5051677;28;20128;-81
2022/05/29 00:03:28;;;;;;;6.05;1.95;;;12.30;64.70;;;;;;5052854;28;20053;-82
2022/05/29 00:05:53;;;;;;;5.10;1.80;;;12.30;64.90;;;;;;5035473;28;20048;-81
2022/05/29 00:08:31;;;;;;;4.82;1.65;;;12.40;64.90;;;;;;5045862;28;20044;-79
2022/05/29 00:10:58;;;;;;;5.32;1.77;;;12.40;65.10;;;;;;5035625;28;20060;-81
2022/05/29 00:13:24;;;;;;;6.75;2.13;;;12.40;65.00;;;;;;5050101;28;20051;-82
2022/05/29 00:15:50;;;;;;;3.38;1.60;;;12.30;65.00;;;;;;5049350;28;20072;-80
2022/05/29 00:18:16;;;;;;;4.10;1.75;;;12.40;65.20;;;;;;5034839;28;20069;-81
2022/05/29 00:20:44;;;;;;;7.43;2.00;;;12.40;65.10;;;;;;5040053;28;20464;-81
2022/05/29 00:23:10;;;;;;;8.70;2.67;;;12.40;65.60;;;;;;5052289;28;20387;-81
2022/05/29 00:25:35;;;;;;;6.18;1.70;;;12.40;65.20;;;;;;5033287;28;20143;-81
2022/05/29 00:28:01;;;;;;;5.95;1.95;;;12.50;65.00;;;;;;5034385;28;20088;-80
2022/05/29 00:30:27;;;;;;;6.72;1.98;;;12.50;65.00;;;;;;5044868;28;20124;-81
2022/05/29 00:32:52;;;;;;;6.18;1.83;;;12.50;65.00;;;;;;5053074;28;20132;-81
2022/05/29 00:35:18;;;;;;;5.78;2.40;;;12.50;65.40;;;;;;5051675;28;20358;-79
2022/05/29 00:37:44;;;;;;;6.35;2.17;;;12.50;64.70;;;;;;5052430;28;20487;-80
2022/05/29 00:40:32;;;;;;;7.75;2.00;;;12.50;64.60;;;;;;5049654;28;20057;-81
2022/05/29 00:42:58;;;;;;;3.97;1.52;;;12.60;64.60;;;;;;5027598;28;20053;-81
2022/05/29 00:45:24;;;;;;;3.50;1.55;;;12.60;64.50;;;;;;5038408;28;20063;-81
2022/05/29 00:47:50;;;;;;;4.75;1.95;;;12.60;64.40;;;;;;5028580;28;20045;-80
2022/05/29 00:50:21;;;;;;;5.57;1.70;;;12.60;64.40;;;;;;5043685;28;20052;-81
2022/05/29 00:52:48;;;;;;;7.07;1.85;;;12.60;64.30;;;;;;5052480;28;20067;-81
2022/05/29 00:55:19;;;;;;;5.60;1.92;;;12.60;64.20;;;;;;5028813;28;20091;-81
2022/05/29 00:57:58;;;;;;;5.88;1.90;;;12.60;64.20;;;;;;5039006;28;20044;-81
2022/05/29 01:00:27;;;;;;;4.05;1.55;;;12.70;64.10;;;;;;5030324;28;20046;-81
2022/05/29 01:02:55;;;;;;;3.90;1.33;;;12.70;64.10;;;;;;5034317;28;20057;-81
2022/05/29 01:05:23;;;;;;;4.22;1.55;;;12.70;64.10;;;;;;5050972;28;20123;-81
2022/05/29 01:07:54;;;;;;;4.32;1.70;;;12.70;64.00;;;;;;5032591;28;20049;-81
2022/05/29 01:10:22;;;;;;;3.60;1.55;;;12.80;64.00;;;;;;5039606;28;20049;-80
2022/05/29 01:13:05;;;;;;;5.45;1.90;;;12.80;63.90;;;;;;5038823;28;20075;-81
2022/05/29 01:15:49;;;;;;;5.05;2.03;;;12.80;63.80;;;;;;5039521;28;20057;-82
2022/05/29 01:18:18;;;;;;;7.07;1.80;;;12.80;63.70;;;;;;5054925;28;20049;-80
2022/05/29 01:20:50;;;;;;;4.22;1.80;;;12.80;63.40;;;;;;5020451;28;20133;-81
2022/05/29 01:23:15;;;;;;;5.25;1.88;;;12.80;63.30;;;;;;5038004;28;20056;-82
2022/05/29 01:26:16;;;;;;;5.75;1.52;;;12.80;63.20;;;;;;5055918;28;20049;-81
2022/05/29 01:28:57;;;;;;;3.95;1.73;;;12.80;63.20;;;;;;5039030;28;20076;-80
2022/05/29 01:31:45;;;;;;;4.40;1.50;;;12.80;63.20;;;;;;5046845;28;20488;-81
2022/05/29 01:34:35;;;;;;;3.67;1.30;;;12.80;63.20;;;;;;5036610;28;20049;-80
2022/05/29 01:37:04;;;;;;;3.90;1.60;;;12.80;63.10;;;;;;5052964;28;20045;-81
2022/05/29 01:39:35;;;;;;;7.53;1.98;;;12.80;63.20;;;;;;5035463;28;20128;-81
2022/05/29 01:42:12;;;;;;;4.57;2.10;;;12.80;63.30;;;;;;5054147;28;20041;-82
2022/05/29 01:44:50;;;;;;;6.00;1.98;;;12.80;63.40;;;;;;5049485;28;20041;-81
2022/05/29 01:47:26;;;;;;;7.18;2.63;;;12.80;63.50;;;;;;5025206;28;20091;-81
2022/05/29 01:50:00;;;;;;;9.65;2.60;;;12.70;63.50;;;;;;5039916;28;20399;-83
2022/05/29 01:52:34;;;;;;;10.43;2.40;;;12.70;63.60;;;;;;5035003;28;20048;-82
2022/05/29 01:55:12;;;;;;;7.57;2.38;;;12.60;63.50;;;;;;5047363;28;20189;-82
2022/05/29 01:57:43;;;;;;;9.02;2.30;;;12.50;63.60;;;;;;5026672;28;20140;-82
2022/05/29 02:00:14;;;;;;;8.05;2.03;;;12.50;63.60;;;;;;5025522;28;20132;-81
2022/05/29 02:02:52;;;;;;;6.40;2.40;;;12.40;63.70;;;;;;5045611;28;20396;-82
2022/05/29 02:05:23;;;;;;;6.57;2.47;;;12.40;63.90;;;;;;5052955;28;20045;-82
2022/05/29 02:07:53;;;;;;;10.35;2.03;;;12.30;63.80;;;;;;5055547;28;20045;-82
2022/05/29 02:10:50;;;;;;;6.82;2.33;;;12.30;63.90;;;;;;5050367;28;20045;-82
2022/05/29 02:13:40;;;;;;;6.40;2.13;;;12.30;64.00;;;;;;5055325;28;20135;-82
2022/05/29 02:16:11;;;;;;;10.20;2.90;;;12.30;63.90;;;;;;5037768;28;20052;-81
2022/05/29 02:18:49;;;;;;;8.38;2.10;;;12.30;64.00;;;;;;5037648;28;20132;-81
2022/05/29 02:21:21;;;;;;;8.77;2.13;;;12.30;64.00;;;;;;5047741;28;20123;-82
2022/05/29 02:23:53;;;;;;;7.30;2.03;;;12.30;64.30;;;;;;5037709;28;20044;-81
2022/05/29 02:26:24;;;;;;;7.28;2.10;;;12.30;63.90;;;;;;5035689;28;20056;-80
2022/05/29 02:28:53;;;;;;;4.25;1.65;;;12.30;63.80;;;;;;5054247;28;20052;-82
2022/05/29 02:31:49;;;;;;;7.88;2.10;;;12.30;63.80;;;;;;5024980;28;20089;-82
2022/05/29 02:34:37;;;;;;;5.60;2.20;;;12.30;63.80;;;;;;4943523;29;20051;-81
2022/05/29 02:37:16;;;;;;;7.85;2.20;;;12.30;63.80;;;;;;4940074;29;20565;-81
2022/05/29 02:40:09;;;;;;;8.40;2.13;;;12.30;63.70;;;;;;4938128;29;20059;-81
2022/05/29 02:42:58;;;;;;;8.30;2.20;;;12.30;63.60;;;;;;4921949;29;20055;-81
2022/05/29 02:46:05;;;;;;;5.50;2.00;;;12.30;63.70;;;;;;4942677;28;20051;-82
2022/05/29 02:49:06;;;;;;;6.47;1.88;;;12.30;63.60;;;;;;4875230;29;20052;-81
2022/05/29 02:51:49;;;;;;;7.53;2.33;;;12.30;63.80;;;;;;4881907;29;20060;-81
2022/05/29 02:54:26;;;;;;;5.72;1.92;;;12.30;63.80;;;;;;4897789;29;20242;-82
2022/05/29 02:56:52;;;;;;;8.32;2.67;;;12.30;63.80;;;;;;4897295;29;20144;-82
2022/05/29 02:59:20;;;;;;;6.28;2.20;;;12.30;63.90;;;;;;4897626;29;20099;-82
2022/05/29 03:02:04;;;;;;;6.80;2.35;;;12.30;64.10;;;;;;4897279;29;20552;-83
2022/05/29 03:04:39;;;;;;;8.55;2.65;;;12.30;64.40;;;;;;4893801;29;20061;-82
2022/05/29 03:07:11;;;;;;;8.27;2.25;;;12.20;64.40;;;;;;4880997;29;20065;-82
2022/05/29 03:09:37;;;;;;;10.13;2.67;;;12.20;64.40;;;;;;4881345;29;20045;-83
2022/05/29 03:12:08;;;;;;;7.95;2.20;;;12.20;64.50;;;;;;4975648;28;20097;-82
2022/05/29 03:14:49;;;;;;;5.45;1.90;;;12.20;64.60;;;;;;4993043;28;20525;-82
2022/05/29 03:17:37;;;;;;;10.38;2.40;;;12.20;64.60;;;;;;4992597;28;20102;-82
2022/05/29 03:20:22;;;;;;;9.15;2.22;;;12.20;64.60;;;;;;4991865;28;20066;-82
2022/05/29 03:22:57;;;;;;;8.43;2.45;;;12.10;64.60;;;;;;4992414;28;20053;-83
2022/05/29 03:25:44;;;;;;;8.48;2.92;;;12.10;64.60;;;;;;5016897;28;20053;-83
2022/05/29 03:28:16;;;;;;;7.20;2.13;;;12.10;64.80;;;;;;5019299;28;20156;-82
2022/05/29 03:30:45;;;;;;;12.52;2.58;;;12.10;64.90;;;;;;5039181;28;20057;-82
2022/05/29 03:33:13;;;;;;;10.65;2.72;;;12.10;65.00;;;;;;5049222;28;20399;-82
2022/05/29 03:35:54;;;;;;;8.13;2.70;;;12.10;65.10;;;;;;5044507;28;20500;-81
2022/05/29 03:38:21;;;;;;;7.68;2.65;;;12.00;65.30;;;;;;5033619;28;20057;-82
2022/05/29 03:40:48;;;;;;;9.90;2.47;;;12.00;65.30;;;;;;5034807;28;20045;-82
2022/05/29 03:43:13;;;;;;;6.70;2.65;;;11.90;65.40;;;;;;5037076;28;20115;-82
2022/05/29 03:45:39;;;;;;;7.70;2.80;;;11.90;65.40;;;;;;5054250;28;20461;-83
2022/05/29 03:48:06;;;;;;;7.10;2.90;;;11.80;65.50;;;;;;5051547;28;20159;-82
2022/05/29 03:50:34;;;;;;;6.50;2.22;;;11.80;65.60;;;;;;5032956;28;20540;-82
2022/05/29 03:53:01;;;;;;;8.63;2.70;;;11.80;65.60;;;;;;5034217;28;20064;-82
2022/05/29 03:55:27;;;;;;;6.32;2.42;;;11.80;65.80;;;;;;5034616;28;20106;-81
2022/05/29 03:57:54;;;;;;;6.70;2.22;;;11.70;65.70;;;;;;5035098;28;20089;-81
2022/05/29 04:00:21;;;;;;;4.82;1.85;;;11.80;65.90;;;;;;5052640;28;20055;-80
2022/05/29 04:02:47;;;;;;;6.47;1.60;;;11.70;65.80;;;;;;5044223;28;20052;-81
2022/05/29 04:05:19;;;;;;;5.60;1.60;;;11.70;65.70;;;;;;5051659;28;20099;-81
2022/05/29 04:13:14;;;;;;;5.95;1.60;;;11.70;65.30;;;;;;5034644;28;19995;-80
2022/05/29 04:15:45;;;;;;;7.25;2.10;;;11.70;65.60;;;;;;5034483;28;20088;-81
2022/05/29 04:18:16;;;;;;;5.75;1.70;;;11.60;65.60;;;;;;5047170;28;20049;-82
2022/05/29 04:20:42;;;;;;;5.78;1.58;;;11.80;65.80;;;;;;5041819;28;20439;-80
2022/05/29 04:23:08;;;;;;;7.22;1.73;;;11.80;65.80;;;;;;5017264;28;20065;-81
2022/05/29 04:25:34;;;;;;;5.97;1.77;;;11.80;65.80;;;;;;5038776;28;20053;-80
2022/05/29 04:28:01;;;;;;;5.68;1.55;;;11.80;65.80;;;;;;5039506;28;20128;-81
2022/05/29 04:30:27;;;;;;;6.03;1.50;;;11.90;65.90;;;;;;5028759;28;20495;-81
2022/05/29 04:33:02;;;;;;;11.13;2.08;;;11.80;65.80;;;;;;5052089;28;20385;-81
2022/05/29 04:35:31;;;;;;;3.95;1.60;;;11.80;65.70;;;;;;5033558;28;20050;-81
2022/05/29 04:37:57;;;;;;;7.57;2.65;;;11.90;65.70;;;;;;5035348;28;20053;-81
2022/05/29 04:40:23;;;;;;;7.10;1.88;;;11.90;65.70;;;;;;5034811;28;20049;-81
2022/05/29 04:42:50;;;;;;;5.50;2.15;;;11.90;65.70;;;;;;5027765;28;20060;-82
2022/05/29 04:45:16;;;;;;;4.88;1.98;;;11.90;65.70;;;;;;5056789;28;20056;-81
2022/05/29 04:47:41;;;;;;;5.07;2.15;;;12.00;65.80;;;;;;5037862;28;20060;-81
2022/05/29 04:50:08;;;;;;;6.13;1.90;;;12.00;65.90;;;;;;5056882;28;20049;-81
2022/05/29 04:52:34;;;;;;;10.57;2.40;;;12.00;66.10;;;;;;5036458;28;20058;-82
2022/05/29 04:55:00;;;;;;;8.07;2.30;;;12.00;66.20;;;;;;5057160;28;20479;-82
2022/05/29 04:57:26;;;;;;;6.82;1.90;;;12.00;66.30;;;;;;5054668;28;20124;-82
2022/05/29 04:59:52;;;;;;;9.20;1.98;;;12.00;66.40;;;;;;5042188;28;20053;-82
2022/05/29 05:02:18;;;;;;;9.57;2.30;;;12.00;66.30;;;;;;5053274;28;20404;-81
2022/05/29 05:04:44;;;;;;;11.00;2.70;;;12.00;66.30;;;;;;5021867;28;20057;-81
2022/05/29 05:07:09;;;;;;;8.02;2.22;;;12.10;66.40;;;;;;5054067;28;20059;-81
2022/05/29 05:09:35;;;;;;;9.55;2.72;;;12.10;66.50;;;;;;5022875;28;20140;-82
2022/05/29 05:12:01;;;;;;;5.90;2.20;;;12.10;66.60;;;;;;5033188;28;20110;-82
2022/05/29 05:14:27;;;;;;;9.27;1.90;;;12.10;66.50;;;;;;5037752;28;20050;-81
2022/05/29 05:16:54;;;;;;;8.25;2.30;;;12.10;66.60;;;;;;5055861;28;20051;-82
2022/05/29 05:19:20;;;;;;;8.25;2.08;;;12.10;66.70;;;;;;5037977;28;20127;-82
2022/05/29 05:21:46;;;;;;;5.80;1.95;;;12.10;66.80;;;;;;5022301;28;20045;-82
2022/05/29 05:24:12;;;;;;;6.07;1.90;;;12.10;66.70;;;;;;5034080;28;20403;-82
2022/05/29 05:26:38;;;;;;;8.52;2.15;;;12.10;66.80;;;;;;5056008;28;20037;-82
2022/05/29 05:29:04;;;;;;;7.03;1.80;;;12.10;67.00;;;;;;5053115;28;20037;-82
2022/05/29 05:31:30;;;;;;;7.45;2.25;;;12.10;67.10;;;;;;5056285;28;20084;-83
2022/05/29 05:33:56;;;;;;;10.32;2.20;;;12.20;67.40;;;;;;5054790;28;20041;-83
2022/05/29 05:36:22;;;;;;;6.30;1.90;;;12.20;67.60;;;;;;5038285;28;20049;-83
2022/05/29 05:38:48;;;;;;;6.95;2.22;;;12.20;67.90;;;;;;5048879;28;20057;-83
2022/05/29 05:41:14;;;;;;;7.63;1.85;;;12.30;68.40;;;;;;5046779;28;20041;-83
2022/05/29 05:43:40;;;;;;;6.35;2.25;;;12.40;68.60;;;;;;5020234;28;20061;-83
2022/05/29 05:46:07;;;;;;;10.05;2.00;;;12.60;68.50;;;;;;5044997;28;20041;-83
2022/05/29 05:48:33;;;;;;;6.75;2.17;;;12.80;68.40;;;;;;5055523;28;20052;-83
2022/05/29 05:51:00;;;;;;;7.07;1.75;;;13.00;68.30;;;;;;5054238;28;20057;-83
2022/05/29 05:53:26;;;;;;;8.18;2.00;;;13.30;67.50;;;;;;5054473;28;20052;-82
2022/05/29 05:55:52;;;;;;;6.45;1.60;;;13.50;66.80;;;;;;5035332;28;20050;-83
2022/05/29 05:58:18;;;;;;;5.88;1.75;;;13.70;66.30;;;;;;5055668;28;20045;-81
2022/05/29 06:00:44;;;;;;;8.05;1.85;;;13.90;65.90;;;;;;5041076;28;20049;-83
2022/05/29 06:03:10;;;;;;;8.32;2.35;;;14.20;65.30;;;;;;5037791;28;20057;-82
2022/05/29 06:05:36;;;;;;;6.68;1.50;;;14.40;64.70;;;;;;5053209;28;20056;-83
2022/05/29 06:08:02;;;;;;;7.65;1.75;;;14.50;63.80;;;;;;5038133;28;20060;-83
2022/05/29 06:10:27;;;;;;;10.30;2.35;;;14.60;63.10;;;;;;5040309;28;20041;-83
2022/05/29 06:12:53;;;;;;;8.63;1.65;;;14.60;62.50;;;;;;5036391;28;20484;-83
2022/05/29 06:15:19;;;;;;;7.03;1.88;;;14.70;62.30;;;;;;5041854;28;20050;-84
2022/05/29 06:17:44;;;;;;;8.68;2.45;;;14.80;62.10;;;;;;5044773;28;20058;-84
2022/05/29 06:20:12;;;;;;;10.57;2.05;;;14.80;61.90;;;;;;5048222;28;20157;-84
2022/05/29 06:22:38;;;;;;;9.70;2.15;;;14.80;61.70;;;;;;5055638;28;20052;-82
2022/05/29 06:25:05;;;;;;;11.45;2.20;;;14.80;61.70;;;;;;5027879;28;20048;-82
2022/05/29 06:27:35;;;;;;;7.28;1.80;;;14.80;61.80;;;;;;5047801;28;20042;-83
2022/05/29 06:30:01;;;;;;;7.15;1.63;;;14.80;61.70;;;;;;5044980;28;20049;-83
2022/05/29 06:32:26;;;;;;;7.10;1.88;;;14.80;61.70;;;;;;5036140;28;20531;-82
2022/05/29 06:34:52;;;;;;;7.25;1.95;;;14.80;61.50;;;;;;5048310;28;20045;-82
2022/05/29 06:37:18;;;;;;;7.75;1.58;;;14.80;61.40;;;;;;5053565;28;20049;-82
2022/05/29 06:39:43;;;;;;;7.75;2.30;;;14.70;61.20;;;;;;5053368;28;20439;-82
2022/05/29 06:42:09;;;;;;;6.85;1.73;;;14.70;61.10;;;;;;5043450;28;20408;-81
2022/05/29 06:44:37;;;;;;;8.95;1.95;;;14.60;61.10;;;;;;5051374;28;20574;-82
2022/05/29 06:47:07;;;;;;;7.35;1.75;;;14.60;61.10;;;;;;5036295;28;20555;-82
2022/05/29 06:49:32;;;;;;;6.97;1.27;;;14.50;60.70;;;;;;5041340;28;20049;-83
2022/05/29 06:51:58;;;;;;;6.93;1.65;;;14.40;60.70;;;;;;5029065;28;20052;-82
2022/05/29 06:54:24;;;;;;;7.72;2.00;;;14.30;60.70;;;;;;5036442;28;20052;-82
2022/05/29 06:56:49;;;;;;;11.90;2.63;;;14.30;60.50;;;;;;5035538;28;20408;-82
2022/05/29 06:59:15;;;;;;;6.15;1.20;;;14.20;60.40;;;;;;5054500;28;20052;-82
2022/05/29 07:07:14;;;;;;;7.90;1.95;;;14.00;60.90;;;;;;5053154;28;20041;-83
2022/05/29 07:09:40;;;;;;;7.03;1.58;;;14.00;60.80;;;;;;5030714;28;20049;-83
2022/05/29 07:12:13;;;;;;;9.00;2.35;;;14.00;60.80;;;;;;5029205;28;20389;-84
2022/05/29 07:14:42;;;;;;;8.35;2.13;;;14.00;61.00;;;;;;5045684;28;20049;-84
2022/05/29 07:17:08;;;;;;;7.88;1.60;;;14.00;61.20;;;;;;5044240;28;20128;-84
2022/05/29 07:19:35;;;;;;;9.88;2.30;;;14.00;61.40;;;;;;5039018;28;20412;-84
2022/05/29 07:22:01;;;;;;;10.93;2.10;;;14.00;61.40;;;;;;5042762;28;20091;-84
2022/05/29 07:24:28;;;;;;;6.78;1.60;;;14.00;61.10;;;;;;5042714;28;20574;-83
2022/05/29 07:26:54;;;;;;;6.28;1.55;;;14.00;61.00;;;;;;5018119;28;20137;-83
2022/05/29 07:29:21;;;;;;;7.55;1.58;;;14.00;61.40;;;;;;5048339;28;20057;-83
2022/05/29 07:31:47;;;;;;;7.88;1.75;;;14.10;61.10;;;;;;5054404;28;20049;-83
2022/05/29 07:34:13;;;;;;;9.55;2.05;;;14.00;60.90;;;;;;5032253;28;20060;-85
2022/05/29 07:36:39;;;;;;;6.93;2.00;;;14.00;61.00;;;;;;5034995;28;20050;-84
2022/05/29 07:39:05;;;;;;;9.63;2.25;;;14.10;61.00;;;;;;5045121;28;20913;-82
2022/05/29 07:44:19;;;;;;;9.55;2.08;;;14.10;60.50;;;;;;4948777;28;20059;-82
2022/05/29 07:46:45;;;;;;;10.40;2.33;;;14.10;60.30;;;;;;4919053;29;20064;-83
2022/05/29 07:49:11;;;;;;;8.80;2.47;;;14.10;60.20;;;;;;4931079;29;20502;-82
2022/05/29 07:51:37;;;;;;;9.65;2.65;;;14.10;60.00;;;;;;4942052;29;20052;-82
2022/05/29 07:54:02;;;;;;;8.20;1.98;;;14.00;60.10;;;;;;4919295;29;20142;-82
2022/05/29 07:56:28;;;;;;;8.80;1.70;;;14.00;60.20;;;;;;4953112;29;20059;-82
2022/05/29 07:58:54;;;;;;;9.02;1.83;;;14.00;60.10;;;;;;4939047;29;20119;-81
2022/05/29 08:01:19;;;;;;;7.72;2.17;;;14.00;60.20;;;;;;4944090;29;20062;-82
2022/05/29 08:03:46;;;;;;;9.05;2.17;;;14.00;60.10;;;;;;4954518;29;20550;-84
2022/05/29 08:06:12;;;;;;;7.35;1.40;;;14.00;59.70;;;;;;4938256;29;20138;-83
2022/05/29 08:08:39;;;;;;;5.75;1.45;;;14.00;59.30;;;;;;4954760;29;20139;-82
2022/05/29 08:11:05;;;;;;;8.32;1.92;;;14.00;58.90;;;;;;4953912;29;20057;-82
2022/05/29 08:13:32;;;;;;;7.88;1.85;;;14.00;58.70;;;;;;4954518;29;20094;-83
2022/05/29 08:15:58;;;;;;;8.88;1.85;;;14.00;58.50;;;;;;4953133;29;20047;-83
2022/05/29 08:18:25;;;;;;;6.07;1.88;;;14.00;58.20;;;;;;4953899;29;20066;-83
2022/05/29 08:20:51;;;;;;;6.75;1.75;;;13.90;58.40;;;;;;4977788;28;20396;-83
2022/05/29 08:23:18;;;;;;;8.27;1.70;;;13.90;58.30;;;;;;5040400;28;20110;-83
2022/05/29 08:31:13;;;;;;;6.22;1.58;;;13.90;58.00;;;;;;5029094;28;20515;-82
2022/05/29 08:33:39;;;;;;;8.88;1.60;;;13.90;58.20;;;;;;5053499;28;20411;-83
2022/05/29 08:36:10;;;;;;;6.47;1.35;;;13.90;58.30;;;;;;5048066;28;20053;-83
2022/05/29 08:38:41;;;;;;;7.50;1.60;;;13.90;58.40;;;;;;5035356;28;20504;-84
2022/05/29 08:41:12;;;;;;;5.63;1.77;;;13.90;58.10;;;;;;5053775;28;20049;-84
2022/05/29 08:43:48;;;;;;;10.95;2.17;;;13.90;58.30;;;;;;5053360;28;20095;-83
2022/05/29 08:46:20;;;;;;;8.50;1.70;;;13.90;58.40;;;;;;5049224;28;20063;-83
2022/05/29 08:48:49;;;;;;;6.10;1.05;;;13.80;58.50;;;;;;5041536;28;20087;-84
2022/05/29 08:51:38;;;;;;;6.60;1.38;;;13.80;58.30;;;;;;5053477;28;20516;-83
2022/05/29 08:54:12;;;;;;;4.85;1.30;;;13.90;58.40;;;;;;5054003;28;20124;-84
2022/05/29 08:56:50;;;;;;;5.22;1.17;;;14.00;58.10;;;;;;5052207;28;20133;-84
2022/05/29 08:59:36;;;;;;;6.85;1.17;;;14.00;58.20;;;;;;5053127;28;20143;-85
2022/05/29 09:02:23;;;;;;;5.70;1.55;;;14.00;58.00;;;;;;5034968;28;20053;-84
2022/05/29 09:04:54;;;;;;;4.75;1.10;;;14.10;58.10;;;;;;5053503;28;20096;-84
2022/05/29 09:07:22;;;;;;;4.60;1.00;;;14.10;58.00;;;;;;5051885;28;20378;-83
2022/05/29 09:09:52;;;;;;;7.80;1.55;;;14.20;58.00;;;;;;5053716;28;20045;-83
2022/05/29 09:12:24;;;;;;;5.22;1.35;;;14.30;58.40;;;;;;5036001;28;20080;-87
2022/05/29 09:15:00;;;;;;;5.72;0.90;;;14.40;58.60;;;;;;5052810;28;20053;-84
2022/05/29 09:17:35;;;;;;;3.40;0.95;;;14.50;58.00;;;;;;5031006;28;20057;-85
2022/05/29 09:20:28;;;;;;;5.97;1.17;;;14.60;57.50;;;;;;5019981;28;20081;-87
2022/05/29 09:22:59;;;;;;;5.43;1.10;;;14.70;56.90;;;;;;5051122;28;20048;-86
2022/05/29 09:25:36;;;;;;;5.68;1.70;;;14.70;56.70;;;;;;5033156;28;20052;-87
2022/05/29 09:28:16;;;;;;;3.22;0.90;;;14.80;56.30;;;;;;5051376;28;20056;-86
2022/05/29 09:30:42;;;;;;;4.53;0.85;;;14.80;56.20;;;;;;5049727;28;20041;-89
2022/05/29 09:33:20;;;;;;;3.33;0.90;;;14.90;56.30;;;;;;5038818;28;20057;-86
2022/05/29 09:36:19;;;;;;;5.28;1.20;;;14.90;55.90;;;;;;5037401;28;20049;-86
2022/05/29 09:38:53;;;;;;;6.05;1.10;;;14.90;55.10;;;;;;5037266;28;20049;-87
2022/05/29 09:41:31;;;;;;;3.13;1.00;;;14.90;55.60;;;;;;5043622;28;20045;-87
2022/05/29 09:44:12;;;;;;;6.40;1.10;;;14.90;56.00;;;;;;5039502;28;20057;-88
2022/05/29 09:46:40;;;;;;;5.38;1.08;;;15.00;56.00;;;;;;5034392;28;20132;-88
2022/05/29 09:52:22;;;;;;;3.72;0.93;;;15.00;55.60;;;;;;5056678;28;20049;-87
2022/05/29 09:55:07;;;;;;;2.72;0.50;;;15.00;56.20;;;;;;5055591;28;20053;-78
2022/05/29 09:57:41;;;;;;;5.68;0.90;;;15.00;56.40;;;;;;5037821;28;20053;-78
2022/05/29 10:00:14;;;;;;;6.70;1.30;;;15.00;56.20;;;;;;5037055;28;20099;-77
2022/05/29 10:02:45;;;;;;;6.32;1.00;;;15.00;56.70;;;;;;5041255;28;20057;-77
2022/05/29 10:05:44;;;;;;;4.47;1.10;;;15.00;56.40;;;;;;5016562;28;20088;-76
2022/05/29 10:08:18;;;;;;;5.22;1.13;;;15.00;55.60;;;;;;5036733;28;20049;-76
2022/05/29 10:10:44;;;;;;;6.18;0.90;;;15.00;55.60;;;;;;5038860;28;20056;-76
2022/05/29 10:13:10;;;;;;;6.30;1.35;;;15.00;56.00;;;;;;5030449;28;20147;-78
2022/05/29 10:15:41;;;;;;;3.95;1.13;;;14.90;55.80;;;;;;5052834;28;20060;-78
2022/05/29 10:18:11;;;;;;;4.80;1.08;;;15.10;56.00;;;;;;5054533;28;20061;-79
2022/05/29 10:20:41;;;;;;;7.95;1.33;;;15.00;55.20;;;;;;5055701;28;20049;-80
2022/05/29 10:23:27;;;;;;;5.53;1.40;;;15.00;55.10;;;;;;5052487;28;20180;-79
2022/05/29 10:26:06;;;;;;;5.22;1.35;;;15.10;55.10;;;;;;5044897;28;20041;-79
2022/05/29 10:28:36;;;;;;;5.03;1.33;;;15.10;55.30;;;;;;5056323;28;20057;-78
2022/05/29 10:31:05;;;;;;;4.88;2.25;;;15.10;55.80;;;;;;5062254;28;20052;-78
2022/05/29 10:33:34;;;;;;;5.72;1.15;;;15.10;55.80;;;;;;5055548;28;20053;-79
2022/05/29 10:36:19;;;;;;;3.55;1.00;;;15.20;55.70;;;;;;5017817;28;20077;-78
2022/05/29 10:38:46;;;;;;;5.22;1.40;;;15.20;55.30;;;;;;5025526;28;20514;-78
2022/05/29 10:41:12;;;;;;;5.10;0.75;;;15.20;55.40;;;;;;5054147;28;20068;-79
2022/05/29 10:43:54;;;;;;;5.13;1.30;;;15.10;54.50;;;;;;5052252;28;20079;-77
2022/05/29 10:46:39;;;;;;;4.47;1.05;;;15.20;54.70;;;;;;5017703;28;20053;-80
2022/05/29 10:49:17;;;;;;;3.28;0.95;;;15.10;54.00;;;;;;5053465;28;20056;-79
2022/05/29 10:52:07;;;;;;;5.25;1.42;;;15.10;54.00;;;;;;5054987;28;20052;-80
2022/05/29 10:54:55;;;;;;;3.33;0.90;;;15.00;54.30;;;;;;5025364;28;20119;-79
2022/05/29 10:57:25;;;;;;;6.70;1.88;;;15.00;54.10;;;;;;5035548;28;20497;-77
2022/05/29 11:00:06;;;;;;;4.25;1.00;;;15.00;54.20;;;;;;5036180;28;20484;-81
2022/05/29 11:05:55;;;;;;;5.20;0.90;;;14.90;53.60;;;;;;5042030;28;20060;-79
2022/05/29 11:08:44;;;;;;;7.45;0.90;;;14.90;53.80;;;;;;5036203;28;20063;-79
2022/05/29 11:11:16;;;;;;;3.70;0.90;;;14.90;54.10;;;;;;4911162;29;20080;-78
2022/05/29 11:14:10;;;;;;;6.50;1.42;;;14.80;54.30;;;;;;4923771;29;20096;-79
2022/05/29 11:16:36;;;;;;;4.43;0.85;;;14.90;54.30;;;;;;4925463;29;20147;-78
2022/05/29 11:19:29;;;;;;;5.40;0.93;;;14.90;54.50;;;;;;4917458;29;20523;-79
2022/05/29 11:22:01;;;;;;;5.68;1.15;;;14.80;54.30;;;;;;4918798;29;20060;-77
2022/05/29 11:24:33;;;;;;;4.70;1.00;;;14.80;54.50;;;;;;4907218;29;20083;-80
2022/05/29 11:27:08;;;;;;;8.82;1.55;;;14.80;54.60;;;;;;4917247;29;20491;-78
2022/05/29 11:29:45;;;;;;;8.88;1.20;;;14.70;55.20;;;;;;4934180;29;20052;-77
2022/05/29 11:32:21;;;;;;;6.68;1.30;;;14.80;55.80;;;;;;4917122;29;20448;-79
2022/05/29 11:35:11;;;;;;;4.15;0.88;;;14.80;56.10;;;;;;4923591;29;20060;-78
2022/05/29 11:37:48;;;;;;;5.47;1.52;;;14.80;56.00;;;;;;4935043;29;20055;-80
2022/05/29 11:40:27;;;;;;;11.88;1.52;;;14.80;56.10;;;;;;4922198;29;20075;-79
2022/05/29 11:43:20;;;;;;;5.28;1.35;;;14.80;55.90;;;;;;4900966;29;20087;-80
2022/05/29 11:51:36;;;;;;;5.90;1.08;;;14.80;55.40;;;;;;5034329;28;20103;-78
2022/05/29 11:54:20;;;;;;;4.43;1.02;;;14.80;55.70;;;;;;5043406;28;20661;-78
2022/05/29 11:56:53;;;;;;;;;;;14.80;55.90;;;;;;5042048;28;20435;-78
2022/05/29 11:59:29;;;;;;;6.50;1.20;;;14.80;55.90;;;;;;5031196;28;20395;-79
2022/05/29 12:02:24;;;;;;;7.40;1.25;;;14.70;55.50;;;;;;5035138;28;20053;-79
2022/05/29 12:05:08;;;;;;;5.43;1.13;;;14.70;55.40;;;;;;5026895;28;20123;-79
2022/05/29 12:07:42;;;;;;;5.97;1.50;;;14.70;55.30;;;;;;5042552;28;20704;-79
2022/05/29 12:10:11;;;;;;;5.22;1.38;;;14.60;55.10;;;;;;5053311;28;20064;-79
2022/05/29 12:12:49;;;;;;;5.90;1.17;;;14.50;55.50;;;;;;5053274;28;20060;-79
2022/05/29 12:15:20;;;;;;;4.57;1.30;;;14.50;55.90;;;;;;5053364;28;20053;-79
2022/05/29 12:18:12;;;;;;;7.30;1.77;;;14.50;56.20;;;;;;5049132;28;20507;-79
2022/05/29 12:20:47;;;;;;;8.07;1.23;;;14.40;55.80;;;;;;5054512;28;20118;-77
2022/05/29 12:23:25;;;;;;;8.10;1.58;;;14.40;56.40;;;;;;5033417;28;20137;-78
2022/05/29 12:26:08;;;;;;;7.03;1.40;;;14.40;57.00;;;;;;5057337;28;20491;-77
2022/05/29 12:28:56;;;;;;;6.70;1.10;;;14.40;56.70;;;;;;5047933;28;20049;-78
2022/05/29 12:31:44;;;;;;;8.77;1.63;;;14.40;56.70;;;;;;5035113;28;20068;-78
2022/05/29 12:34:41;;;;;;;7.72;1.13;;;14.50;57.00;;;;;;5053056;28;20528;-78
2022/05/29 12:37:26;;;;;;;3.88;1.35;;;14.50;56.60;;;;;;5032618;28;20171;-79
2022/05/29 12:40:16;;;;;;;2.95;1.20;;;14.50;56.60;;;;;;5050226;28;20400;-79
2022/05/29 12:42:41;;;;;;;6.35;1.52;;;14.60;56.80;;;;;;5035538;28;20080;-79
2022/05/29 12:45:53;;;;;;;4.60;0.90;;;14.60;56.50;;;;;;5052906;28;20085;-78
2022/05/29 12:48:40;;;;;;;7.45;1.65;;;14.60;56.40;;;;;;4949677;29;20515;-78
2022/05/29 12:51:26;;;;;;;4.95;1.35;;;14.50;56.50;;;;;;4947155;29;20138;-78
2022/05/29 12:54:10;;;;;;;7.28;1.55;;;14.50;56.70;;;;;;4937475;29;20066;-79
2022/05/29 12:57:00;;;;;;;5.28;1.00;;;14.40;56.90;;;;;;4952906;29;20182;-78
2022/05/29 12:59:35;;;;;;;8.77;1.45;;;14.40;56.60;;;;;;4940293;29;20071;-79
2022/05/29 13:02:22;;;;;;;5.53;1.25;;;14.40;56.70;;;;;;4936878;29;20054;-79
2022/05/29 13:05:12;;;;;;;5.68;1.60;;;14.40;56.90;;;;;;4953169;28;20083;-79
2022/05/29 13:07:54;;;;;;;7.13;1.30;;;14.40;56.70;;;;;;4940751;29;20063;-79
2022/05/29 13:10:27;;;;;;;6.72;1.58;;;14.40;56.70;;;;;;4954968;29;20050;-77
2022/05/29 13:13:19;;;;;;;6.15;1.60;;;14.40;57.00;;;;;;4921729;29;20058;-78
2022/05/29 13:15:47;;;;;;;5.53;1.38;;;14.40;57.10;;;;;;4932558;29;20051;-79
2022/05/29 13:21:17;;;;;;;7.88;2.20;;;14.50;56.70;;;;;;4951851;29;20402;-77
2022/05/29 13:23:54;;;;;;;8.30;1.90;;;14.60;56.30;;;;;;4990745;28;20124;-80
2022/05/29 13:26:30;;;;;;;7.18;2.08;;;14.60;56.00;;;;;;5038354;28;20064;-79
2022/05/29 13:29:04;;;;;;;6.40;1.10;;;14.50;56.10;;;;;;5036879;28;20403;-79
2022/05/29 13:31:32;;;;;;;5.25;1.10;;;14.50;56.90;;;;;;5045848;28;20052;-79
2022/05/29 13:34:31;;;;;;;9.23;1.60;;;14.40;57.20;;;;;;5036971;28;20072;-80
2022/05/29 13:37:02;;;;;;;3.10;0.75;;;14.40;57.20;;;;;;5038288;28;20115;-79
2022/05/29 13:39:27;;;;;;;5.88;1.25;;;14.30;57.50;;;;;;5038583;28;20044;-79
2022/05/29 13:42:23;;;;;;;5.35;1.25;;;14.20;57.80;;;;;;5054493;28;20063;-79
2022/05/29 13:44:49;;;;;;;6.25;1.23;;;14.20;58.20;;;;;;5045567;28;20492;-78
2022/05/29 13:47:24;;;;;;;6.82;1.30;;;14.20;58.30;;;;;;5052327;28;20103;-79
2022/05/29 13:50:03;;;;;;;8.77;1.92;;;14.20;58.30;;;;;;5056236;28;20094;-80